Latest Weather Observations for Wilcannia Airport

IDN60801

Issued at 10:05 am EDT Saturday 1 November 2014 (issued every 30 minutes, with the page automatically refreshed every 10 minutes)

About weather observations | Map of weather stations | Latest weather observations for NSW | Other Formats
Station Details ID: 046012 Name: WILCANNIA AERODROME AWS Lat: -31.52 Lon: 143.38 Height: 94.3 m
Data from the previous 72 hours. | See also: Recent months for locations in New South Wales
Date/Time
EDT
Temp
°C
App
Temp
°C
Dew
Point
Rel
Hum
%
Delta-T
°C
Wind Press
QNH
hPa
Press
MSL
hPa
Rain
since 9 am
mm
Dir
 
Spd
km/h
Gust
km/h
Spd
kts
Gust
kts
01/10:00am 22.7 16.5 12.6 53 5.8 SW 37 50 20 27 1010.0 1009.8 0.0
01/09:30am 24.0 18.5 12.3 48 6.7 SW 33 48 18 26 1009.0 1008.8 0.0
01/09:00am 23.9 18.5 10.9 44 7.3 SW 30 46 16 25 1008.4 1008.1 -
01/08:30am 23.9 18.6 9.9 41 7.7 SW 28 41 15 22 1007.8 1007.5 -
01/08:29am 23.8 18.5 9.8 41 7.7 SW 28 41 15 22 1007.8 1007.5 -
01/08:00am 23.6 20.2 9.2 40 7.8 SW 17 22 9 12 1007.0 1006.7 -
01/07:30am 22.3 20.3 10.1 46 6.7 SW 11 15 6 8 1006.3 1006.0 -
01/07:00am 21.5 20.1 9.7 47 6.4 S 7 9 4 5 1005.8 1005.5 -
01/06:30am 21.9 20.4 9.1 44 6.9 S 7 11 4 6 1005.3 1005.0 -
01/06:00am 22.8 20.0 8.5 40 7.6 S 13 19 7 10 1005.1 1004.8 -
01/05:30am 23.0 18.9 7.9 38 8.0 S 19 28 10 15 1004.7 1004.4 -
01/02:00am 25.2 20.0 0.0 19 11.7 NE 17 20 9 11 1002.4 1002.1 0.0
01/01:30am 26.2 21.3 -0.8 17 12.4 N 15 19 8 10 1002.5 1002.2 0.0
01/01:00am 26.7 21.3 -1.2 16 12.8 N 17 19 9 10 1002.9 1002.6 0.0
01/12:30am 27.0 21.7 -0.9 16 12.9 N 17 22 9 12 1003.0 1002.7 0.0
01/12:00am 26.3 21.4 -0.7 17 12.5 N 15 17 8 9 1003.0 1002.7 0.0
 
Date/Time
EDT
Temp
°C
App
Temp
°C
Dew
Point
Rel
Hum
%
Delta-T
°C
Wind Press
QNH
hPa
Press
MSL
hPa
Rain
since 9 am
mm
Dir
 
Spd
km/h
Gust
km/h
Spd
kts
Gust
kts
31/11:30pm 25.5 20.7 0.2 19 11.8 NNE 15 17 8 9 1003.0 1002.7 0.0
31/11:00pm 26.2 20.9 -0.8 17 12.5 NNE 17 19 9 10 1003.0 1002.7 0.0
31/10:30pm 25.7 20.5 0.4 19 11.8 NNE 17 19 9 10 1003.0 1002.7 0.0
31/10:00pm 25.9 21.3 -1.0 17 12.3 NNE 13 15 7 8 1003.0 1002.7 0.0
31/09:30pm 27.2 22.6 -0.8 16 13.0 NNE 13 15 7 8 1003.0 1002.7 0.0
31/09:00pm 27.8 22.9 -0.3 16 13.2 N 15 15 8 8 1002.9 1002.6 0.0
31/08:30pm 28.2 23.6 -0.9 15 13.6 N 13 13 7 7 1002.9 1002.6 0.0
31/08:00pm 30.7 26.7 0.2 14 14.8 NNW 11 17 6 9 1002.8 1002.5 0.0
31/07:30pm 33.3 28.9 0.1 12 16.3 NNW 13 19 7 10 1002.8 1002.5 0.0
31/07:00pm 35.2 29.7 0.3 11 17.5 NW 19 26 10 14 1002.9 1002.6 0.0
31/06:30pm 35.4 29.7 0.5 11 17.5 NNW 20 32 11 17 1003.1 1002.8 0.0
31/06:00pm 36.3 30.1 -0.2 10 18.3 NNW 22 35 12 19 1003.1 1002.8 0.0
31/05:30pm 36.2 30.4 -0.2 10 18.1 NW 20 33 11 18 1003.3 1003.0 0.0
31/05:00pm 36.7 30.9 0.1 10 18.4 NNW 20 63 11 34 1003.7 1003.4 0.0
31/04:30pm 36.2 29.6 -0.2 10 18.1 NW 24 33 13 18 1004.1 1003.8 0.0
31/04:00pm 38.0 31.6 1.1 10 19.0 WNW 24 39 13 21 1004.3 1004.0 0.0
31/03:30pm 37.4 31.7 0.7 10 18.7 N 20 30 11 16 1005.1 1004.8 0.0
31/03:00pm 37.1 31.4 0.4 10 18.6 NNW 20 30 11 16 1005.8 1005.5 0.0
31/02:30pm 35.3 29.0 -0.9 10 17.7 NNW 22 32 12 17 1006.2 1005.9 0.0
31/02:00pm 35.8 30.5 -0.5 10 18.0 NNW 17 24 9 13 1006.7 1006.4 0.0
31/01:30pm 35.0 27.5 -1.1 10 17.6 N 28 37 15 20 1007.1 1006.8 0.0
31/01:00pm 35.2 28.5 -1.0 10 17.7 NNW 24 33 13 18 1007.4 1007.1 0.0
31/12:30pm 35.4 28.7 -0.8 10 17.8 NNW 24 35 13 19 1007.7 1007.4 0.0
31/12:00pm 35.8 29.2 -0.5 10 18.0 N 24 33 13 18 1008.2 1007.9 0.0
31/11:30am 34.9 29.1 -1.2 10 17.5 N 19 30 10 16 1008.8 1008.5 0.0
31/11:00am 34.2 29.3 -0.4 11 17.0 NNE 15 20 8 11 1009.3 1009.1 0.0
31/10:30am 32.8 28.1 -1.5 11 16.3 N 13 20 7 11 1009.7 1009.5 0.0
31/10:00am 30.2 25.3 -0.2 14 14.6 NNE 15 19 8 10 1009.7 1009.5 0.0
31/09:30am 28.6 23.3 -0.5 15 13.7 NNE 17 24 9 13 1009.9 1009.7 0.0
31/09:00am 28.1 23.1 -0.9 15 13.5 NE 15 20 8 11 1010.2 1010.0 0.0
31/08:30am 25.3 21.5 -0.7 18 11.9 NNE 9 11 5 6 1010.1 1009.9 0.0
31/08:00am 22.3 19.0 0.2 23 10.0 NNE 7 9 4 5 1010.2 1010.0 0.0
31/07:30am 20.5 16.3 -0.7 24 9.3 NNE 11 13 6 7 1010.2 1010.0 0.0
31/07:00am 20.2 15.7 -0.4 25 9.1 NE 13 15 7 8 1009.8 1009.6 0.0
31/06:30am 18.6 14.5 -0.2 28 8.2 ENE 11 13 6 7 1009.5 1009.3 0.0
31/06:00am 18.6 14.8 -0.7 27 8.4 E 9 11 5 6 1009.2 1009.0 0.0
31/05:30am 17.4 13.5 -1.3 28 7.9 SSE 9 11 5 6 1009.1 1008.9 0.0
31/05:00am 18.7 14.8 -1.2 26 8.5 S 9 13 5 7 1009.0 1008.8 0.0
31/04:30am 21.1 16.8 -1.4 22 9.8 SW 11 17 6 9 1008.8 1008.5 0.0
31/04:00am 21.5 16.6 -0.5 23 9.8 N 15 17 8 9 1008.7 1008.4 0.0
31/03:30am 19.2 14.2 -1.3 25 8.8 NNE 15 15 8 8 1008.8 1008.5 0.0
31/03:00am 19.0 14.2 -2.6 23 9.0 NNE 13 13 7 7 1009.2 1009.0 0.0
31/02:30am 19.8 15.0 -2.5 22 9.4 NE 13 13 7 7 1009.3 1009.1 0.0
31/02:00am 20.9 16.0 -3.6 19 10.2 NNE 13 15 7 8 1009.5 1009.3 0.0
31/01:30am 23.7 18.8 -3.6 16 11.7 N 13 17 7 9 1010.1 1009.9 0.0
31/01:00am 22.5 17.2 -3.7 17 11.1 N 15 17 8 9 1010.5 1010.3 0.0
31/12:30am 24.1 18.8 -3.3 16 11.8 N 15 17 8 9 1010.7 1010.5 0.0
31/12:00am 20.3 15.5 -2.7 21 9.7 NE 13 15 7 8 1010.7 1010.5 0.0
 
Date/Time
EDT
Temp
°C
App
Temp
°C
Dew
Point
Rel
Hum
%
Delta-T
°C
Wind Press
QNH
hPa
Press
MSL
hPa
Rain
since 9 am
mm
Dir
 
Spd
km/h
Gust
km/h
Spd
kts
Gust
kts
30/11:30pm 21.7 16.7 -4.4 17 10.8 ENE 13 13 7 7 1010.9 1010.7 0.0
30/11:00pm 22.1 17.2 -3.3 18 10.8 ENE 13 15 7 8 1011.2 1011.0 0.0
30/10:30pm 23.2 18.6 -4.0 16 11.5 NE 11 13 6 7 1011.2 1011.0 0.0
30/10:00pm 25.3 20.0 -3.2 15 12.4 NNE 15 17 8 9 1011.3 1011.1 0.0
30/09:30pm 25.0 19.8 -2.5 16 12.1 NNE 15 17 8 9 1011.1 1010.9 0.0
30/09:00pm 25.4 20.2 -3.1 15 12.5 NNE 15 15 8 8 1011.0 1010.8 0.0
30/08:30pm 27.2 22.0 -2.6 14 13.4 NE 15 17 8 9 1010.9 1010.7 0.0
30/08:00pm 29.6 24.4 -2.8 12 14.8 NE 15 19 8 10 1010.6 1010.4 0.0
30/07:30pm 31.8 28.0 -1.1 12 15.7 NE 9 15 5 8 1010.3 1010.1 0.0
30/07:00pm 33.2 28.2 -1.2 11 16.5 NE 15 20 8 11 1010.3 1010.1 0.0
30/06:30pm 34.0 29.5 -0.6 11 16.9 N 13 19 7 10 1010.2 1010.0 0.0
30/06:17pm 34.4 26.1 -1.6 10 17.3 N 32 43 17 23 1009.7 1009.5 0.0
30/06:00pm 34.7 31.6 -0.1 11 17.2 ESE 6 11 3 6 1010.2 1010.0 0.0
30/05:30pm 34.4 30.5 -1.6 10 17.3 W 9 17 5 9 1010.3 1010.1 0.0
30/05:00pm 34.7 30.1 -1.4 10 17.5 WSW 13 20 7 11 1010.5 1010.3 0.0
30/04:30pm 34.5 30.2 -1.5 10 17.4 N 11 19 6 10 1010.7 1010.5 0.0
30/04:00pm 34.4 30.5 -1.6 10 17.3 NW 9 19 5 10 1011.1 1010.9 0.0
30/03:30pm 33.9 29.7 -0.7 11 16.8 NNE 11 22 6 12 1011.4 1011.2 0.0
30/03:00pm 34.1 30.3 -0.5 11 16.9 E 9 24 5 13 1011.8 1011.6 0.0
30/02:30pm 33.6 29.0 -0.9 11 16.7 NW 13 20 7 11 1012.4 1012.2 0.0
30/02:00pm 34.3 30.0 0.8 12 16.8 N 13 20 7 11 1013.0 1012.7 0.0
30/01:30pm 32.7 29.1 0.7 13 15.8 N 9 15 5 8 1013.5 1013.2 0.0
30/01:00pm 32.9 28.6 0.9 13 15.9 NNW 13 26 7 14 1013.9 1013.6 0.0
30/12:30pm 32.9 29.3 0.9 13 15.9 NNE 9 15 5 8 1014.4 1014.1 0.0
30/12:00pm 31.6 28.4 0.9 14 15.1 NNE 7 15 4 8 1014.9 1014.6 0.0
30/11:30am 31.3 27.1 1.6 15 14.8 NNW 13 19 7 10 1015.2 1014.9 0.0
30/11:00am 31.0 26.5 2.3 16 14.4 N 15 22 8 12 1015.5 1015.2 0.0
30/10:30am 30.7 26.6 2.0 16 14.3 N 13 26 7 14 1015.6 1015.3 0.0
30/10:00am 29.8 25.7 2.1 17 13.7 NNE 13 19 7 10 1015.8 1015.5 0.0
30/09:30am 28.1 23.4 3.0 20 12.5 NE 17 22 9 12 1015.6 1015.3 0.0
30/09:00am 26.7 21.9 2.6 21 11.8 NE 17 22 9 12 1015.6 1015.3 0.0
30/08:30am 24.7 20.3 2.8 24 10.6 NE 15 19 8 10 1015.5 1015.2 0.0
30/08:00am 22.4 18.1 3.0 28 9.3 NE 15 17 8 9 1015.1 1014.8 0.0
30/07:30am 18.5 14.0 2.4 34 7.4 NE 15 15 8 8 1015.0 1014.7 0.0
30/07:00am 17.1 12.6 2.3 37 6.7 NE 15 17 8 9 1015.0 1014.7 0.0
30/06:30am 16.6 12.0 1.5 36 6.7 NE 15 17 8 9 1014.5 1014.2 0.0
30/06:00am 17.2 13.1 2.0 36 6.9 NE 13 15 7 8 1014.4 1014.1 0.0
30/05:30am 16.9 12.9 2.9 39 6.4 NE 13 15 7 8 1014.3 1014.0 0.0
30/05:00am 15.4 11.8 3.2 44 5.6 ENE 11 13 6 7 1014.3 1014.0 0.0
30/04:30am 14.2 11.0 3.1 47 5.0 E 9 11 5 6 1014.2 1013.9 0.0
30/04:00am 13.0 10.0 1.0 44 5.1 SSE 6 6 3 3 1014.5 1014.2 0.0
30/03:30am 14.1 11.2 1.4 42 5.5 SSE 6 7 3 4 1014.5 1014.2 0.0
30/03:00am 14.3 11.0 2.2 44 5.3 SE 9 11 5 6 1014.5 1014.2 0.0
30/02:30am 15.8 12.5 2.6 41 6.0 ESE 9 11 5 6 1014.5 1014.2 0.0
30/02:00am 15.7 12.0 2.5 41 5.9 E 11 11 6 6 1014.5 1014.2 0.0
30/01:30am 15.8 12.1 2.2 40 6.1 E 11 13 6 7 1014.8 1014.5 0.0
30/01:00am 16.5 13.0 1.4 36 6.7 E 9 9 5 5 1015.1 1014.8 0.0
30/12:30am 18.3 14.1 1.8 33 7.5 SSE 13 13 7 7 1015.5 1015.2 0.0
30/12:00am 19.9 15.9 2.7 32 8.0 SSE 13 13 7 7 1015.6 1015.3 0.0
 
Date/Time
EDT
Temp
°C
App
Temp
°C
Dew
Point
Rel
Hum
%
Delta-T
°C
Wind Press
QNH
hPa
Press
MSL
hPa
Rain
since 9 am
mm
Dir
 
Spd
km/h
Gust
km/h
Spd
kts
Gust
kts
29/11:30pm 19.5 15.3 1.9 31 8.1 SSE 13 13 7 7 1015.8 1015.5 0.0
29/11:00pm 20.5 16.3 1.9 29 8.6 SSE 13 15 7 8 1016.0 1015.7 0.0
29/10:30pm 21.0 16.9 2.3 29 8.8 S 13 15 7 8 1016.0 1015.7 0.0
29/10:00pm 20.3 16.5 1.7 29 8.5 SSE 11 13 6 7 1015.9 1015.6 0.0
29/09:30pm 21.7 17.9 1.9 27 9.2 SSE 11 13 6 7 1015.7 1015.4 0.0
29/09:00pm 22.5 18.4 2.1 26 9.6 S 13 13 7 7 1015.6 1015.3 0.0
29/08:30pm 23.5 19.3 1.8 24 10.3 S 13 13 7 7 1015.4 1015.1 0.0
29/08:00pm 25.5 22.1 1.6 21 11.4 SSW 9 11 5 6 1015.2 1014.9 0.0
29/07:30pm 28.1 24.5 0.8 17 13.1 SW 9 11 5 6 1014.8 1014.5 0.0
29/07:00pm 29.6 25.7 1.1 16 13.9 SW 11 17 6 9 1014.7 1014.4 0.0
29/06:30pm 29.9 25.8 2.2 17 13.8 SSW 13 19 7 10 1014.5 1014.2 0.0
29/06:00pm 30.3 26.1 1.7 16 14.1 SSW 13 22 7 12 1014.5 1014.2 0.0
29/05:30pm 30.4 26.2 1.8 16 14.2 S 13 20 7 11 1014.7 1014.4 0.0
29/05:00pm 30.7 27.1 2.9 17 14.1 SSW 11 22 6 12 1014.8 1014.5 0.0
29/04:30pm 29.5 25.7 1.9 17 13.6 S 11 26 6 14 1015.1 1014.8 0.0
29/04:00pm 30.1 25.6 2.4 17 13.8 WSW 15 28 8 15 1015.4 1015.1 0.0
29/03:30pm 29.4 26.0 4.1 20 13.0 SSW 11 20 6 11 1015.9 1015.6 0.0
29/03:00pm 29.9 26.0 5.2 21 12.9 WSW 15 22 8 12 1016.3 1016.0 0.0
29/02:30pm 28.9 26.1 5.1 22 12.4 SSW 9 24 5 13 1016.9 1016.6 0.0
29/02:00pm 28.1 24.5 5.0 23 11.9 SW 13 22 7 12 1017.5 1017.2 0.0
29/01:30pm 27.7 24.5 5.3 24 11.6 S 11 19 6 10 1017.8 1017.5 0.0
29/01:00pm 27.2 24.5 5.5 25 11.2 SW 9 24 5 13 1018.3 1018.1 0.0
29/12:30pm 26.2 23.0 5.2 26 10.8 SW 11 17 6 9 1018.8 1018.6 0.0
29/12:00pm 25.9 23.2 5.5 27 10.5 SSE 9 19 5 10 1019.2 1019.0 0.0
29/11:30am 24.9 22.2 5.7 29 9.8 E 9 19 5 10 1019.6 1019.4 0.0
29/11:00am 24.8 21.8 6.1 30 9.6 SSE 11 19 6 10 1019.9 1019.7 0.0
29/10:30am 23.5 20.0 5.4 31 9.1 SE 13 22 7 12 1019.9 1019.7 0.0

Other Formats:

Comma delimited format used in spreadsheet applications
http://www.bom.gov.au/fwo/IDN60801/IDN60801.95695.axf

JavaScript Object Notation format (JSON) in row-major order
http://www.bom.gov.au/fwo/IDN60801/IDN60801.95695.json